Little Valley, California
Current Conditions -  °F | °C
As of 8:28 AM on Tuesday 21 Oct 2014 (Local Time) from KAAT Reporting Station
Broken Clouds Broken Clouds  
Wind Chill: 40°   Ceiling: 12000
Heat Index: 40°   Visibility: 10mi
Dew Point: 37°   Wind: 3mph
Humidity: 89%   Direction: 210°SSW
Pressure: 30.14"   Gusts: NA
Location:  40.9954°N, 121.135°W
Report Text: KAAT 211528Z AUTO 21003KT 10SM SCT025 BKN120 04/03 A3014 RMK AO2 T00440028
Loading
Personal Weather Stations






























Interactive Weather Map
Tropical Storm Tracking
New forecast layout! Learn more

10-Day Weather Forecast

Advertisements
Track Severe Weather on mobile